Time;durP1;ratioP1;P1;durP2;ratioP2;P2;SDS_P1;SDS_P2;PMS_P1;PMS_P2;Temp;Humidity;BMP_temperature;BMP_pressure;BME280_temperature;BME280_humidity;BME280_pressure;Samples;Min_cycle;Max_cycle;Signal;HPM_P1;HPM_P2
2021/06/13 00:01:59;;;;;;;5.17;4.22;;;;;;;15.43;92.39;98588.98;1780719;80;20934;-71
2021/06/13 00:04:26;;;;;;;6.78;3.83;;;;;;;15.40;92.36;98584.80;1780727;80;21041;-70
2021/06/13 00:06:52;;;;;;;4.78;4.35;;;;;;;15.39;92.18;98584.44;1780850;80;21430;-71
2021/06/13 00:09:20;;;;;;;5.92;4.97;;;;;;;15.37;92.35;98584.22;1780770;80;20977;-71
2021/06/13 00:11:47;;;;;;;5.40;4.55;;;;;;;15.33;92.55;98579.68;1780709;80;21064;-71
2021/06/13 00:14:15;;;;;;;4.67;4.15;;;;;;;15.31;92.61;98571.57;1780572;80;20931;-72
2021/06/13 00:16:42;;;;;;;7.60;4.37;;;;;;;15.29;92.57;98570.84;1780800;80;20946;-72
2021/06/13 00:19:09;;;;;;;12.28;5.10;;;;;;;15.27;92.43;98570.95;1780640;80;20990;-72
2021/06/13 00:21:35;;;;;;;5.28;4.55;;;;;;;15.23;92.62;98566.05;1780847;80;21020;-71
2021/06/13 00:24:02;;;;;;;5.53;4.20;;;;;;;15.21;92.79;98563.55;1780611;80;21133;-71
2021/06/13 00:26:29;;;;;;;5.83;4.75;;;;;;;15.21;92.90;98565.34;1780874;80;21473;-69
2021/06/13 00:28:55;;;;;;;4.50;4.10;;;;;;;15.18;92.98;98565.12;1780540;80;21017;-69
2021/06/13 00:31:22;;;;;;;4.90;4.40;;;;;;;15.16;93.12;98561.30;1780811;80;20939;-69
2021/06/13 00:33:50;;;;;;;6.40;4.22;;;;;;;15.13;93.34;98564.14;1780655;80;21033;-71
2021/06/13 00:36:19;;;;;;;8.28;6.00;;;;;;;15.11;93.52;98558.65;1780612;80;21072;-71
2021/06/13 00:38:46;;;;;;;6.08;4.62;;;;;;;15.11;93.56;98559.96;1780825;80;21434;-70
2021/06/13 00:41:21;;;;;;;4.28;3.87;;;;;;;15.10;93.40;98555.67;1780725;79;20934;-70
2021/06/13 00:43:47;;;;;;;5.78;4.47;;;;;;;15.08;93.32;98550.55;1780752;80;21086;-72
2021/06/13 00:46:13;;;;;;;5.67;4.72;;;;;;;15.06;93.41;98546.37;1780661;80;20915;-70
2021/06/13 00:48:41;;;;;;;6.55;4.65;;;;;;;15.04;93.44;98544.33;1780798;80;21962;-71
2021/06/13 00:51:08;;;;;;;25.95;4.80;;;;;;;15.02;93.48;98542.30;1780634;80;20986;-71
2021/06/13 00:53:36;;;;;;;5.75;3.92;;;;;;;15.00;93.50;98535.86;1785240;80;21492;-70
2021/06/13 00:56:05;;;;;;;4.65;4.22;;;;;;;14.99;93.50;98535.50;1758056;80;21067;-71
2021/06/13 00:58:32;;;;;;;5.00;4.50;;;;;;;14.97;93.54;98532.66;1786549;80;20949;-70
2021/06/13 01:00:59;;;;;;;6.72;4.50;;;;;;;14.96;93.56;98522.66;1786582;80;21814;-71
2021/06/13 01:03:27;;;;;;;6.95;4.42;;;;;;;14.95;93.39;98518.38;1786361;80;21028;-70
2021/06/13 01:05:54;;;;;;;5.80;4.55;;;;;;;14.94;93.12;98523.25;1786467;80;20985;-70
2021/06/13 01:08:52;;;;;;;4.97;4.00;;;;;;;14.94;93.02;98518.48;1786401;80;21474;-71
2021/06/13 01:11:49;;;;;;;6.87;4.60;;;;;;;14.93;92.95;98509.80;1785993;80;20922;-71
2021/06/13 01:14:38;;;;;;;5.97;4.70;;;;;;;14.91;92.82;98513.00;1758201;80;21204;-70
2021/06/13 01:17:29;;;;;;;5.55;4.30;;;;;;;14.87;92.67;98503.70;1786598;80;21500;-70
2021/06/13 01:20:19;;;;;;;6.08;4.20;;;;;;;14.84;92.60;98505.23;1786740;80;21442;-71
2021/06/13 01:23:17;;;;;;;6.53;4.60;;;;;;;14.80;92.71;98498.06;1786812;80;21392;-71
2021/06/13 01:26:18;;;;;;;7.70;4.60;;;;;;;14.77;92.76;98502.72;1786820;80;21028;-70
2021/06/13 01:29:22;;;;;;;6.60;4.25;;;;;;;14.75;92.93;98498.07;1786450;80;21152;-71
2021/06/13 01:31:57;;;;;;;4.78;4.37;;;;;;;14.73;92.84;98490.80;1779014;80;21498;-72
2021/06/13 01:34:31;;;;;;;5.10;4.37;;;;;;;14.70;92.86;98486.63;1786442;80;20974;-71
2021/06/13 01:37:00;;;;;;;5.95;4.97;;;;;;;14.67;92.94;98486.01;1784370;80;21028;-71
2021/06/13 01:39:28;;;;;;;6.30;4.80;;;;;;;14.64;93.02;98479.69;1786513;80;21052;-71
2021/06/13 01:41:58;;;;;;;4.40;3.87;;;;;;;14.61;93.11;98475.52;1786300;80;21044;-71
2021/06/13 01:44:26;;;;;;;5.28;4.55;;;;;;;14.59;93.13;98478.71;1786609;80;20994;-72
2021/06/13 01:46:53;;;;;;;6.00;4.50;;;;;;;14.56;93.03;98472.42;1786740;80;20946;-72
2021/06/13 01:49:20;;;;;;;5.37;4.80;;;;;;;14.55;92.91;98473.84;1786565;80;20954;-72
2021/06/13 01:51:48;;;;;;;7.75;4.70;;;;;;;14.53;93.04;98466.58;1786859;80;21533;-71
2021/06/13 01:54:17;;;;;;;5.37;3.87;;;;;;;14.52;92.85;98468.36;1786700;80;21005;-71
2021/06/13 01:56:48;;;;;;;9.40;4.70;;;;;;;14.50;92.49;98462.39;1786776;80;20930;-72
2021/06/13 01:59:17;;;;;;;6.17;5.00;;;;;;;14.50;92.33;98460.25;1786683;80;21521;-72
2021/06/13 02:01:46;;;;;;;6.50;4.35;;;;;;;14.48;92.27;98461.20;1786259;80;21549;-72
2021/06/13 02:04:13;;;;;;;5.05;3.67;;;;;;;14.47;92.06;98463.45;1786554;80;20954;-72
2021/06/13 02:06:47;;;;;;;5.75;3.90;;;;;;;14.47;91.89;98466.54;1786603;80;21142;-72
2021/06/13 02:09:15;;;;;;;14.95;8.90;;;;;;;14.49;91.94;98472.50;1758349;80;20934;-72
2021/06/13 02:11:43;;;;;;;10.28;8.40;;;;;;;14.55;92.20;98464.69;1786545;80;20926;-71
2021/06/13 02:14:10;;;;;;;10.38;7.10;;;;;;;14.64;92.64;98462.20;1786553;80;20954;-71
2021/06/13 02:16:40;;;;;;;9.90;6.45;;;;;;;14.82;92.61;98456.91;1786272;80;21021;-71
2021/06/13 02:19:07;;;;;;;6.05;5.35;;;;;;;15.06;91.96;98458.16;1786548;80;21136;-73
2021/06/13 02:21:34;;;;;;;10.85;5.87;;;;;;;15.33;91.10;98447.38;1786853;80;20938;-72
2021/06/13 02:24:00;;;;;;;5.80;5.00;;;;;;;15.61;90.09;98438.22;1786622;80;20927;-72
2021/06/13 02:26:27;;;;;;;9.25;5.85;;;;;;;15.88;88.90;98433.91;1786806;80;21063;-72
2021/06/13 02:28:57;;;;;;;8.55;5.47;;;;;;;16.17;87.91;98431.59;1786603;80;20961;-72
2021/06/13 02:31:26;;;;;;;8.58;5.20;;;;;;;16.52;86.48;98441.36;1786843;80;21098;-71
2021/06/13 02:33:53;;;;;;;6.70;5.65;;;;;;;16.85;84.99;98433.81;1758059;80;20931;-71
2021/06/13 02:36:20;;;;;;;7.20;5.25;;;;;;;17.19;82.95;98434.43;1786895;80;20946;-71
2021/06/13 02:38:51;;;;;;;6.92;4.75;;;;;;;17.56;81.26;98428.67;1786379;80;20993;-70
2021/06/13 02:41:18;;;;;;;6.58;5.28;;;;;;;17.92;79.02;98422.03;1786754;80;21450;-71
2021/06/13 02:43:45;;;;;;;7.65;5.10;;;;;;;18.27;77.50;98432.05;1786590;80;21141;-70
2021/06/13 02:46:12;;;;;;;4.95;4.42;;;;;;;18.58;75.60;98424.36;1786466;80;20915;-70
2021/06/13 02:48:38;;;;;;;7.75;5.08;;;;;;;18.90;74.00;98422.78;1786668;80;21443;-70
2021/06/13 02:51:05;;;;;;;10.23;5.40;;;;;;;19.25;72.53;98422.13;1786482;80;21016;-70
2021/06/13 02:53:47;;;;;;;7.15;4.67;;;;;;;19.59;71.20;98420.30;1786616;80;21430;-70
2021/06/13 02:56:31;;;;;;;5.80;4.55;;;;;;;19.97;69.87;98412.69;1781430;79;26102;-71
2021/06/13 02:59:31;;;;;;;6.37;4.85;;;;;;;20.42;68.43;98415.30;1786606;80;21025;-70
2021/06/13 03:01:58;;;;;;;7.28;4.10;;;;;;;20.88;66.72;98406.77;1786570;80;20977;-70
2021/06/13 03:04:25;;;;;;;5.87;4.35;;;;;;;21.36;64.55;98411.58;1786484;80;20974;-71
2021/06/13 03:06:57;;;;;;;8.93;4.40;;;;;;;21.69;63.07;98404.61;1786520;80;21048;-71
2021/06/13 03:09:26;;;;;;;9.60;5.50;;;;;;;22.03;61.10;98408.55;1786642;80;21133;-72
2021/06/13 03:11:54;;;;;;;10.72;5.78;;;;;;;22.20;60.15;98404.94;1786556;80;20990;-73
2021/06/13 03:14:23;;;;;;;6.50;4.80;;;;;;;22.40;59.79;98408.11;1786496;80;20964;-73
2021/06/13 03:16:50;;;;;;;11.22;5.05;;;;;;;22.78;58.87;98403.21;1758111;80;20945;-74
2021/06/13 03:19:17;;;;;;;8.30;4.47;;;;;;;23.24;57.47;98397.66;1786768;80;21053;-73
2021/06/13 03:21:46;;;;;;;7.20;4.67;;;;;;;23.66;56.21;98390.74;1758498;80;21844;-73
2021/06/13 03:24:13;;;;;;;6.08;5.30;;;;;;;24.06;55.31;98384.39;1786874;80;20926;-72
2021/06/13 03:26:40;;;;;;;11.53;6.60;;;;;;;24.43;54.25;98385.00;1786695;80;21479;-74
2021/06/13 03:29:08;;;;;;;10.32;6.72;;;;;;;24.83;53.16;98392.31;1786445;80;21026;-73
2021/06/13 03:31:36;;;;;;;9.90;5.70;;;;;;;25.24;51.98;98390.11;1786555;80;20998;-71
2021/06/13 03:34:03;;;;;;;10.03;5.58;;;;;;;25.63;50.76;98385.86;1786484;80;21107;-71
2021/06/13 03:36:30;;;;;;;10.28;6.58;;;;;;;26.01;49.94;98379.86;1786414;80;21005;-70
2021/06/13 03:38:58;;;;;;;8.35;6.20;;;;;;;26.40;48.87;98382.97;1758295;80;20969;-70
2021/06/13 03:41:26;;;;;;;9.95;5.92;;;;;;;26.79;47.85;98379.00;1758114;80;21012;-70
2021/06/13 03:43:53;;;;;;;6.22;4.45;;;;;;;27.16;46.32;98384.56;1786751;80;20942;-71
2021/06/13 03:46:20;;;;;;;9.48;4.37;;;;;;;27.39;45.49;98377.08;1786503;80;21375;-70
2021/06/13 03:48:50;;;;;;;5.00;3.70;;;;;;;27.65;44.74;98378.27;1786463;80;20989;-71
2021/06/13 03:51:17;;;;;;;3.90;3.50;;;;;;;27.89;44.49;98370.25;1786437;80;21028;-69
2021/06/13 03:53:47;;;;;;;4.60;4.00;;;;;;;28.23;43.63;98376.02;1783874;80;20926;-70
2021/06/13 03:56:19;;;;;;;4.80;4.10;;;;;;;28.50;42.84;98369.70;1780676;80;20938;-70
2021/06/13 03:58:46;;;;;;;4.50;4.10;;;;;;;28.66;42.14;98377.31;1780638;80;21138;-70
2021/06/13 04:01:14;;;;;;;7.17;6.20;;;;;;;28.78;41.64;98375.66;1780880;80;21415;-71
2021/06/13 04:03:41;;;;;;;5.15;4.25;;;;;;;28.87;41.77;98376.83;1780725;80;20938;-71
2021/06/13 04:06:08;;;;;;;9.50;4.53;;;;;;;29.12;41.38;98371.15;1780739;79;21018;-70
2021/06/13 04:08:36;;;;;;;6.65;4.62;;;;;;;29.39;40.90;98372.75;1780645;80;20982;-71
2021/06/13 04:11:03;;;;;;;6.20;3.95;;;;;;;29.65;40.47;98369.69;1780647;79;21150;-70
2021/06/13 04:13:29;;;;;;;6.37;4.20;;;;;;;29.86;40.21;98364.03;1780654;80;21035;-71
2021/06/13 04:15:56;;;;;;;6.33;3.98;;;;;;;30.11;39.77;98369.51;1780637;80;21009;-71
2021/06/13 04:18:23;;;;;;;11.33;5.03;;;;;;;30.31;38.96;98365.36;1780749;80;20934;-70
2021/06/13 04:20:49;;;;;;;8.15;4.12;;;;;;;30.50;38.74;98358.52;1750692;80;20969;-70
2021/06/13 04:23:16;;;;;;;6.87;4.70;;;;;;;30.74;38.17;98362.28;1780944;80;21865;-72
2021/06/13 04:25:44;;;;;;;6.65;4.35;;;;;;;30.89;37.71;98363.28;1780863;80;20970;-70
2021/06/13 04:28:15;;;;;;;6.70;4.65;;;;;;;30.98;37.65;98365.14;1780806;80;21622;-71
2021/06/13 04:30:42;;;;;;;10.28;4.67;;;;;;;31.04;37.22;98362.93;1780673;80;20982;-71
2021/06/13 04:33:09;;;;;;;5.47;4.37;;;;;;;30.93;37.46;98359.64;1725947;80;21050;-71
2021/06/13 04:35:35;;;;;;;6.28;4.42;;;;;;;30.80;36.85;98360.05;1780627;80;21126;-70
2021/06/13 04:38:02;;;;;;;10.40;4.70;;;;;;;30.61;36.88;98358.86;1780676;80;20934;-71
2021/06/13 04:40:28;;;;;;;23.47;5.37;;;;;;;30.48;36.72;98357.91;1780716;80;21500;-71
2021/06/13 04:42:55;;;;;;;9.35;4.60;;;;;;;30.37;36.73;98360.48;1780629;80;20978;-71
2021/06/13 04:45:21;;;;;;;5.78;4.50;;;;;;;30.34;37.38;98355.55;1780747;80;20922;-71
2021/06/13 04:47:47;;;;;;;8.65;5.00;;;;;;;30.46;36.91;98350.59;1781021;80;21752;-71
2021/06/13 04:50:14;;;;;;;6.22;4.70;;;;;;;30.57;37.05;98350.45;1780926;80;20937;-71
2021/06/13 04:52:40;;;;;;;4.90;4.40;;;;;;;30.78;36.91;98356.75;1780584;80;20938;-71
2021/06/13 04:55:30;;;;;;;6.28;4.53;;;;;;;30.95;36.62;98350.84;1701682;80;21528;-71
2021/06/13 04:58:08;;;;;;;5.80;4.35;;;;;;;31.11;35.91;98349.78;1785622;80;21488;-71
2021/06/13 05:00:35;;;;;;;6.90;4.33;;;;;;;31.19;35.67;98351.33;1786057;80;21135;-71
2021/06/13 05:03:01;;;;;;;14.63;5.03;;;;;;;31.31;35.74;98352.25;1786534;80;20930;-71
2021/06/13 05:05:27;;;;;;;7.83;4.30;;;;;;;31.53;35.68;98341.05;1786669;80;21425;-72
2021/06/13 05:07:56;;;;;;;7.50;4.25;;;;;;;31.75;35.12;98343.61;1786562;80;20953;-71
2021/06/13 05:10:23;;;;;;;14.38;4.97;;;;;;;31.85;34.50;98337.15;1758466;80;20970;-71
2021/06/13 05:12:52;;;;;;;7.55;4.40;;;;;;;31.93;34.47;98336.84;1786541;80;21254;-71
2021/06/13 05:15:20;;;;;;;11.25;5.10;;;;;;;32.14;34.04;98340.37;1786766;80;20978;-71
2021/06/13 05:17:47;;;;;;;9.63;4.70;;;;;;;32.21;33.99;98347.53;1786547;79;21021;-70
2021/06/13 05:20:14;;;;;;;15.53;14.00;;;;;;;32.26;33.75;98345.80;1786586;80;21001;-70
2021/06/13 05:22:54;;;;;;;10.53;6.15;;;;;;;32.07;33.34;98352.27;1786621;80;20937;-70
2021/06/13 05:25:21;;;;;;;4.50;4.00;;;;;;;31.58;33.58;98354.62;1786699;80;21783;-70
2021/06/13 05:27:47;;;;;;;21.40;4.75;;;;;;;31.02;33.48;98365.83;1786634;80;21507;-70
2021/06/13 05:30:14;;;;;;;8.63;4.10;;;;;;;30.17;34.42;98365.15;1758603;80;20938;-70
2021/06/13 05:32:41;;;;;;;5.58;4.33;;;;;;;29.37;35.83;98377.48;1786640;80;20992;-71
2021/06/13 05:35:08;;;;;;;4.53;4.10;;;;;;;29.02;36.77;98376.09;1786690;80;21041;-71
2021/06/13 05:37:35;;;;;;;8.35;6.03;;;;;;;28.65;37.57;98368.98;1786702;80;21137;-71
2021/06/13 05:40:01;;;;;;;11.03;6.03;;;;;;;28.33;38.53;98366.59;1786575;80;20965;-71
2021/06/13 05:42:28;;;;;;;5.55;3.98;;;;;;;28.30;39.08;98374.20;1786757;80;21032;-70
2021/06/13 05:44:54;;;;;;;6.58;4.70;;;;;;;28.30;39.41;98380.37;1786596;80;20930;-71
2021/06/13 05:47:21;;;;;;;7.03;4.08;;;;;;;28.09;40.11;98373.30;1786770;80;21056;-70
2021/06/13 05:49:47;;;;;;;6.28;4.37;;;;;;;27.82;40.54;98370.73;1786523;80;21124;-69
2021/06/13 05:52:14;;;;;;;4.47;4.15;;;;;;;27.49;41.20;98371.91;1786961;80;21406;-71
2021/06/13 05:54:40;;;;;;;4.87;3.45;;;;;;;27.29;41.19;98370.46;1783126;80;21009;-72
2021/06/13 05:57:07;;;;;;;6.20;3.67;;;;;;;27.19;41.41;98362.79;1780764;79;21033;-70
2021/06/13 05:59:33;;;;;;;8.33;3.92;;;;;;;27.25;41.03;98367.86;1780825;80;20934;-71
2021/06/13 06:02:00;;;;;;;7.95;3.90;;;;;;;27.34;40.46;98356.02;1780934;80;21769;-71
2021/06/13 06:04:26;;;;;;;4.47;3.80;;;;;;;27.48;40.39;98363.58;1780668;80;21064;-71
2021/06/13 06:06:52;;;;;;;3.22;2.92;;;;;;;27.51;40.27;98360.52;1780822;80;20923;-71
2021/06/13 06:09:19;;;;;;;7.53;4.47;;;;;;;27.50;40.49;98356.20;1780783;80;20978;-71
2021/06/13 06:11:45;;;;;;;4.20;3.42;;;;;;;27.47;40.66;98357.92;1780759;80;20922;-72
2021/06/13 06:14:12;;;;;;;4.97;3.92;;;;;;;27.42;40.38;98354.50;1780812;80;21759;-71
2021/06/13 06:16:38;;;;;;;6.05;3.50;;;;;;;27.32;40.88;98352.72;1780713;80;20954;-71
2021/06/13 06:19:05;;;;;;;13.05;4.20;;;;;;;27.26;40.94;98358.84;1780802;80;20954;-70
2021/06/13 06:21:31;;;;;;;5.45;3.17;;;;;;;27.15;41.23;98358.89;1780903;80;21435;-71
2021/06/13 06:23:57;;;;;;;3.30;2.87;;;;;;;27.10;41.66;98362.14;1780833;80;21001;-72
2021/06/13 06:26:24;;;;;;;8.68;2.90;;;;;;;27.11;41.12;98356.30;1780982;80;21101;-74
2021/06/13 06:28:50;;;;;;;4.95;2.70;;;;;;;27.02;41.38;98358.78;1780682;80;20970;-71
2021/06/13 06:31:17;;;;;;;8.45;2.95;;;;;;;26.86;41.77;98359.05;1781053;80;20954;-72
2021/06/13 06:33:43;;;;;;;5.47;2.37;;;;;;;26.78;42.04;98357.88;1780854;80;21403;-71
2021/06/13 06:36:09;;;;;;;13.85;4.22;;;;;;;26.65;41.81;98359.41;1781084;80;21017;-71
2021/06/13 06:38:36;;;;;;;4.40;3.25;;;;;;;26.46;42.60;98356.06;1780777;80;21088;-72
2021/06/13 06:41:03;;;;;;;5.75;2.80;;;;;;;26.32;43.75;98359.63;1780631;80;20977;-70
2021/06/13 06:43:29;;;;;;;4.47;2.40;;;;;;;26.15;43.84;98357.70;1780893;80;21517;-71
2021/06/13 06:45:56;;;;;;;5.62;2.42;;;;;;;25.97;43.75;98359.97;1780748;80;20977;-71
2021/06/13 06:48:25;;;;;;;5.65;2.30;;;;;;;25.87;44.24;98359.42;1780697;80;20950;-71
2021/06/13 06:50:51;;;;;;;2.47;2.10;;;;;;;25.75;43.94;98349.77;1780746;80;21150;-72
2021/06/13 06:53:18;;;;;;;4.15;2.50;;;;;;;25.70;44.56;98354.83;1780590;80;21531;-72
2021/06/13 06:55:45;;;;;;;3.75;2.00;;;;;;;25.65;44.93;98353.22;1780532;80;20954;-71
2021/06/13 06:58:11;;;;;;;6.35;3.20;;;;;;;25.53;45.25;98348.86;1780771;80;21025;-72
2021/06/13 07:00:38;;;;;;;4.42;2.60;;;;;;;25.49;45.40;98355.56;1780806;80;21037;-72
2021/06/13 07:03:10;;;;;;;3.45;3.10;;;;;;;25.47;45.73;98349.59;1780840;80;21085;-72
2021/06/13 07:05:34;;;;;;;2.92;1.95;;;;;;;25.43;44.59;98354.95;1780026;80;20942;-72
2021/06/13 07:08:00;;;;;;;4.37;2.35;;;;;;;25.32;44.53;98353.60;1780749;80;20945;-72
2021/06/13 07:10:27;;;;;;;4.45;3.02;;;;;;;25.22;45.27;98351.70;1780829;80;21018;-71
2021/06/13 07:12:53;;;;;;;2.62;2.30;;;;;;;25.08;45.42;98352.54;1780699;80;21466;-71
2021/06/13 07:15:20;;;;;;;6.25;2.98;;;;;;;24.92;45.58;98345.53;1780838;79;21752;-72
2021/06/13 07:17:48;;;;;;;2.98;1.95;;;;;;;24.91;45.82;98350.52;1780674;80;20917;-72
2021/06/13 07:20:15;;;;;;;10.78;2.67;;;;;;;24.95;45.74;98347.03;1780945;80;21378;-73
2021/06/13 07:22:42;;;;;;;1.85;1.75;;;;;;;24.97;45.69;98349.02;1780771;79;20979;-72
2021/06/13 07:25:10;;;;;;;6.45;1.67;;;;;;;25.00;45.10;98345.96;1780979;79;21523;-71
2021/06/13 07:27:37;;;;;;;4.80;2.70;;;;;;;25.02;45.15;98353.26;1780972;79;21766;-72
2021/06/13 07:30:11;;;;;;;3.47;2.17;;;;;;;24.99;45.31;98359.77;1780810;80;21382;-72
2021/06/13 07:32:38;;;;;;;2.98;2.10;;;;;;;24.98;44.32;98362.10;1780957;80;21029;-71
2021/06/13 07:35:06;;;;;;;2.00;1.42;;;;;;;24.92;44.40;98365.48;1780752;80;20946;-73
2021/06/13 07:37:33;;;;;;;3.02;1.65;;;;;;;24.87;44.39;98365.19;1780666;80;20941;-72
2021/06/13 07:40:00;;;;;;;3.80;1.70;;;;;;;24.91;44.78;98363.00;1780820;80;21140;-72
2021/06/13 07:42:27;;;;;;;2.62;1.42;;;;;;;24.98;44.69;98359.44;1780788;80;21454;-72
2021/06/13 07:44:54;;;;;;;2.75;1.50;;;;;;;25.11;44.54;98358.83;1780740;80;20972;-71
2021/06/13 07:47:20;;;;;;;2.60;1.70;;;;;;;25.28;43.87;98366.95;1780743;80;20946;-72
2021/06/13 07:49:47;;;;;;;2.47;1.50;;;;;;;25.47;42.77;98370.06;1780723;80;21025;-71
2021/06/13 07:52:13;;;;;;;1.62;1.52;;;;;;;25.67;43.19;98367.18;1780851;79;21108;-72
2021/06/13 07:54:40;;;;;;;3.05;2.02;;;;;;;25.80;42.77;98368.66;1782133;79;21068;-71
2021/06/13 07:57:09;;;;;;;2.20;1.40;;;;;;;25.88;42.84;98371.73;1786483;80;21020;-71
2021/06/13 07:59:36;;;;;;;5.67;4.90;;;;;;;25.94;42.79;98372.33;1786468;79;20938;-73
2021/06/13 08:02:04;;;;;;;4.70;3.27;;;;;;;26.00;42.38;98379.04;1786645;80;20942;-71
2021/06/13 08:04:35;;;;;;;2.30;1.85;;;;;;;26.09;42.75;98371.27;1786621;80;21959;-70
2021/06/13 08:06:58;;;;;;;1.77;1.67;;;;;;;26.13;43.08;98378.37;1785888;80;21409;-71
2021/06/13 08:09:25;;;;;;;1.92;1.60;;;;;;;26.02;43.78;98378.85;1786492;80;20941;-71
2021/06/13 08:11:51;;;;;;;1.95;1.50;;;;;;;25.87;44.75;98383.40;1786526;80;20947;-71
2021/06/13 08:14:18;;;;;;;3.35;1.82;;;;;;;25.88;45.19;98375.73;1786534;80;21128;-71
2021/06/13 08:16:44;;;;;;;1.80;1.62;;;;;;;25.93;44.74;98385.33;1786427;80;21117;-72
2021/06/13 08:19:12;;;;;;;4.65;1.82;;;;;;;25.89;44.96;98387.53;1786433;79;20918;-71
2021/06/13 08:21:38;;;;;;;6.62;1.47;;;;;;;25.90;44.59;98389.69;1786528;80;20993;-71
2021/06/13 08:24:06;;;;;;;3.47;2.12;;;;;;;25.79;44.68;98388.31;1786422;80;20934;-72
2021/06/13 08:26:33;;;;;;;2.40;1.55;;;;;;;25.68;45.33;98390.14;1786734;80;20950;-72
2021/06/13 08:29:02;;;;;;;2.55;1.50;;;;;;;25.60;45.70;98391.02;1786493;80;21490;-71
2021/06/13 08:31:29;;;;;;;4.17;2.10;;;;;;;25.41;45.78;98387.09;1786636;80;21445;-70
2021/06/13 08:33:57;;;;;;;3.70;1.90;;;;;;;25.17;46.47;98389.21;1786477;80;21002;-72
2021/06/13 08:36:25;;;;;;;6.53;2.17;;;;;;;25.00;46.61;98392.02;1786439;80;20906;-70
2021/06/13 08:38:52;;;;;;;5.33;1.77;;;;;;;24.86;48.08;98403.93;1786849;80;20974;-72
2021/06/13 08:41:19;;;;;;;5.33;1.60;;;;;;;24.68;48.59;98401.09;1786462;80;21124;-72
2021/06/13 08:43:46;;;;;;;2.47;1.80;;;;;;;24.43;49.47;98392.14;1786441;80;20918;-72
2021/06/13 08:46:14;;;;;;;1.77;1.60;;;;;;;24.19;50.05;98386.46;1786363;80;20934;-72
2021/06/13 08:48:45;;;;;;;1.47;1.37;;;;;;;24.01;50.93;98391.55;1786357;80;20986;-72
2021/06/13 08:51:12;;;;;;;2.60;1.47;;;;;;;23.84;51.29;98393.98;1786462;80;20918;-72
2021/06/13 08:53:44;;;;;;;2.05;1.42;;;;;;;23.63;51.82;98396.39;1786460;80;21824;-72
2021/06/13 08:56:07;;;;;;;5.00;1.40;;;;;;;23.41;52.29;98397.93;1781365;80;21435;-71
2021/06/13 08:58:34;;;;;;;3.98;1.60;;;;;;;23.21;52.59;98401.97;1780567;79;20977;-70
2021/06/13 09:01:00;;;;;;;20.25;3.40;;;;;;;22.94;53.49;98400.05;1780687;80;20977;-72
2021/06/13 09:03:27;;;;;;;2.25;1.40;;;;;;;22.73;54.20;98407.65;1780898;80;21449;-72
2021/06/13 09:05:54;;;;;;;3.33;1.30;;;;;;;22.53;55.39;98412.45;1780570;80;21214;-72
2021/06/13 09:08:20;;;;;;;3.25;1.67;;;;;;;22.30;55.99;98419.38;1780868;80;21033;-72
2021/06/13 09:10:48;;;;;;;6.45;3.08;;;;;;;21.98;57.63;98410.84;1780568;80;20982;-70
2021/06/13 09:13:21;;;;;;;2.83;1.42;;;;;;;21.66;59.10;98413.69;1780722;80;21556;-70
2021/06/13 09:15:53;;;;;;;7.67;2.30;;;;;;;21.36;60.73;98416.03;1780712;80;21037;-70
2021/06/13 09:18:41;;;;;;;2.52;1.40;;;;;;;20.99;62.88;98418.39;1780882;79;21129;-71
2021/06/13 09:21:26;;;;;;;5.00;2.67;;;;;;;20.63;64.35;98417.63;1775958;80;21033;-70
2021/06/13 09:23:52;;;;;;;12.53;2.67;;;;;;;20.35;66.63;98416.04;1780664;80;20970;-71
2021/06/13 09:26:20;;;;;;;4.40;2.00;;;;;;;20.16;69.15;98419.16;1780658;80;20966;-71
2021/06/13 09:28:49;;;;;;;3.67;1.80;;;;;;;20.06;69.90;98420.19;1750581;80;21513;-70
2021/06/13 09:31:24;;;;;;;6.70;1.65;;;;;;;19.97;70.59;98429.02;1780699;80;21877;-70
2021/06/13 09:33:53;;;;;;;4.55;1.30;;;;;;;19.85;70.88;98427.88;1780539;80;21009;-70
2021/06/13 09:36:27;;;;;;;3.27;1.27;;;;;;;19.74;70.88;98437.33;1780576;80;20934;-68
2021/06/13 09:38:58;;;;;;;;;;;;;;;19.58;71.02;98441.08;1783744;80;20947;-70
2021/06/13 09:41:24;;;;;;;4.25;1.05;;;;;;;19.43;71.69;98440.66;1780646;80;20091;-70
2021/06/13 09:43:55;;;;;;;2.55;1.40;;;;;;;19.33;71.67;98437.73;1780555;80;21056;-69
2021/06/13 09:46:33;;;;;;;1.75;1.02;;;;;;;19.24;73.31;98437.61;1779970;80;20954;-71
2021/06/13 09:49:09;;;;;;;3.25;0.95;;;;;;;19.24;73.52;98434.14;1780746;80;20971;-71
2021/06/13 09:51:43;;;;;;;3.40;1.42;;;;;;;19.28;73.71;98419.70;1780605;80;21052;-71
2021/06/13 09:54:26;;;;;;;3.77;1.30;;;;;;;19.37;74.33;98416.70;1780711;80;20866;-70
2021/06/13 09:56:56;;;;;;;1.32;1.02;;;;;;;19.49;74.02;98416.85;1785960;80;21171;-68
2021/06/13 09:59:25;;;;;;;1.20;1.10;;;;;;;19.69;73.50;98419.78;1786345;80;21521;-70
2021/06/13 10:01:55;;;;;;;0.98;0.90;;;;;;;19.89;72.35;98416.05;1786488;80;20954;-70
2021/06/13 10:04:30;;;;;;;1.70;1.00;;;;;;;20.13;68.89;98422.59;1786281;80;21500;-70
2021/06/13 10:07:00;;;;;;;2.25;1.10;;;;;;;20.30;67.62;98429.69;1786599;80;21001;-71
2021/06/13 10:09:39;;;;;;;2.30;1.45;;;;;;;20.48;67.36;98423.12;1786502;80;21128;-69
2021/06/13 10:12:09;;;;;;;1.52;1.00;;;;;;;20.73;67.58;98427.64;1786871;80;21414;-71
2021/06/13 10:14:38;;;;;;;1.00;1.00;;;;;;;20.98;64.64;98426.02;1786420;79;20982;-70
2021/06/13 10:17:05;;;;;;;3.90;1.10;;;;;;;21.06;63.24;98452.49;1786596;79;21421;-70
2021/06/13 10:19:43;;;;;;;1.85;1.10;;;;;;;21.10;63.54;98441.13;1786742;80;21417;-70
2021/06/13 10:22:11;;;;;;;0.82;0.75;;;;;;;21.11;61.89;98425.11;1786531;80;21846;-70
2021/06/13 10:24:41;;;;;;;1.15;0.70;;;;;;;21.17;61.90;98436.88;1786463;80;20921;-71
2021/06/13 10:27:11;;;;;;;2.98;0.60;;;;;;;21.20;60.69;98430.80;1786711;80;20982;-70
2021/06/13 10:29:41;;;;;;;1.32;1.00;;;;;;;21.19;60.76;98427.78;1786639;80;20973;-70
2021/06/13 10:32:09;;;;;;;1.35;0.60;;;;;;;21.10;59.07;98434.52;1786298;80;21037;-71
2021/06/13 10:34:35;;;;;;;1.62;0.80;;;;;;;20.98;60.94;98436.59;1786495;80;22325;-70
2021/06/13 10:37:09;;;;;;;1.50;0.60;;;;;;;20.99;61.16;98442.19;1786553;80;20966;-72
2021/06/13 10:39:37;;;;;;;0.70;0.70;;;;;;;21.01;59.84;98433.61;1786699;79;26887;-71
2021/06/13 10:42:06;;;;;;;3.60;0.62;;;;;;;20.99;59.37;98440.38;1786865;80;20942;-70
2021/06/13 10:44:36;;;;;;;0.62;0.60;;;;;;;20.96;59.54;98454.42;1786236;80;21458;-71
2021/06/13 10:47:11;;;;;;;1.95;0.55;;;;;;;20.89;58.93;98435.69;1733549;80;21129;-71
2021/06/13 10:49:41;;;;;;;1.37;0.78;;;;;;;20.86;59.59;98439.95;1786703;80;21488;-71
2021/06/13 10:52:18;;;;;;;0.95;0.60;;;;;;;20.84;60.24;98442.41;1786594;80;20989;-70
2021/06/13 10:54:59;;;;;;;1.27;0.62;;;;;;;20.86;61.09;98448.38;1786608;80;20974;-70
2021/06/13 10:57:45;;;;;;;0.60;0.60;;;;;;;20.90;60.21;98445.28;1789721;80;20973;-70
2021/06/13 11:00:24;;;;;;;0.93;0.60;;;;;;;20.86;59.80;98449.20;1789590;80;21145;-70
2021/06/13 11:02:57;;;;;;;0.72;0.72;;;;;;;20.80;59.06;98452.94;1789979;80;21496;-71
2021/06/13 11:05:40;;;;;;;0.70;0.70;;;;;;;20.69;60.51;98450.05;1788802;80;20989;-71
2021/06/13 11:08:07;;;;;;;1.25;0.57;;;;;;;20.59;59.75;98454.58;1790282;80;21021;-72
2021/06/13 11:10:35;;;;;;;0.65;0.50;;;;;;;20.47;59.69;98458.44;1789644;80;20965;-71
2021/06/13 11:13:15;;;;;;;7.15;0.75;;;;;;;20.36;59.03;98465.23;1789828;80;21831;-71
2021/06/13 11:15:48;;;;;;;0.47;0.47;;;;;;;20.21;59.40;98462.25;1788444;80;20966;-71
2021/06/13 11:18:20;;;;;;;;;;;;;;;20.02;59.40;98459.73;1792489;80;20949;-70
2021/06/13 11:21:00;;;;;;;0.82;0.60;;;;;;;19.82;59.88;98459.83;1788943;80;20406;-70
2021/06/13 11:23:28;;;;;;;0.60;0.60;;;;;;;19.63;61.19;98467.00;1788879;80;20930;-71
2021/06/13 11:25:59;;;;;;;0.70;0.70;;;;;;;19.48;62.02;98476.67;1790118;80;21124;-71
2021/06/13 11:28:41;;;;;;;0.88;0.60;;;;;;;19.34;63.46;98478.95;1789932;80;20965;-71
2021/06/13 11:31:15;;;;;;;0.40;0.40;;;;;;;19.18;64.45;98488.77;1789692;80;21465;-70
2021/06/13 11:33:58;;;;;;;1.40;0.50;;;;;;;18.96;63.67;98495.66;1789570;80;20974;-70
2021/06/13 11:36:32;;;;;;;2.45;0.45;;;;;;;18.70;64.66;98495.38;1789708;80;21232;-70
2021/06/13 11:39:10;;;;;;;0.65;0.40;;;;;;;18.47;65.31;98506.13;1789493;80;21744;-69
2021/06/13 11:41:42;;;;;;;0.72;0.60;;;;;;;18.33;66.23;98531.55;1789666;80;20930;-70
2021/06/13 11:44:23;;;;;;;0.60;0.55;;;;;;;18.21;66.63;98507.59;1789821;80;20977;-71
2021/06/13 11:46:53;;;;;;;0.30;0.30;;;;;;;18.18;67.56;98503.46;1783027;80;21525;-70